AEA1025 LEMD-LFPO
Flight info
| Callsign | AEA1025 |
|---|---|
| Flight time | 1h 26m |
| Altitude | 34000 |
| Route | RBO N867 OSTIX DCT GASMO DCT DGO DCT ABRIX DCT CNA DCT TUDRA/N0402F280 DCT BEVOL UT158 AMB |
| Aircraft | B38M/M-SDE1FGHILORVWXY/HB1 |
Departure
| Time | 2026-05-07 19:53 |
|---|---|
| Airport | Adolfo Suárez Madrid–Barajas Airport (LEMD) |
Arrival
| Time | 2026-05-07 21:19 |
|---|---|
| Airport | Paris-Orly Airport (LFPO) |
| Time | Latitude | Longitude | Altitude | Speed | Heading |
|---|---|---|---|---|---|
| 2026-05-07 19:39 | 40.48677 | -3.59160 | 2025 ft | 0 kts | 89° |
| 2026-05-07 19:44 | 40.48677 | -3.59176 | 2034 ft | 4 kts | 89° |
| 2026-05-07 19:44 | 40.48677 | -3.59203 | 2030 ft | 4 kts | 115° |
| 2026-05-07 19:44 | 40.48691 | -3.59213 | 2036 ft | 3 kts | 179° |
| 2026-05-07 19:44 | 40.48708 | -3.59213 | 2036 ft | 1 kts | 179° |
| 2026-05-07 19:47 | 40.48704 | -3.59213 | 2036 ft | 2 kts | 179° |
| 2026-05-07 19:47 | 40.48664 | -3.59212 | 2032 ft | 11 kts | 179° |
| 2026-05-07 19:47 | 40.48558 | -3.59211 | 2025 ft | 12 kts | 179° |
| 2026-05-07 19:47 | 40.48505 | -3.59186 | 2032 ft | 4 kts | 108° |
| 2026-05-07 19:48 | 40.48506 | -3.59153 | 2029 ft | 6 kts | 88° |
| 2026-05-07 19:48 | 40.48508 | -3.59047 | 2032 ft | 17 kts | 90° |
| 2026-05-07 19:48 | 40.48509 | -3.58862 | 2032 ft | 22 kts | 89° |
| 2026-05-07 19:48 | 40.48509 | -3.58673 | 2032 ft | 21 kts | 90° |
| 2026-05-07 19:49 | 40.48510 | -3.58476 | 2016 ft | 24 kts | 89° |
| 2026-05-07 19:49 | 40.48511 | -3.58258 | 2013 ft | 26 kts | 90° |
| 2026-05-07 19:49 | 40.48512 | -3.58066 | 2005 ft | 12 kts | 90° |
| 2026-05-07 19:49 | 40.48565 | -3.58025 | 2004 ft | 11 kts | 333° |
| 2026-05-07 19:50 | 40.48639 | -3.58048 | 2003 ft | 12 kts | 0° |
| 2026-05-07 19:50 | 40.48733 | -3.58050 | 2004 ft | 16 kts | 360° |
| 2026-05-07 19:50 | 40.48865 | -3.58050 | 2005 ft | 22 kts | 0° |
| 2026-05-07 19:50 | 40.49043 | -3.58052 | 2005 ft | 28 kts | 360° |
| 2026-05-07 19:51 | 40.49189 | -3.58054 | 2005 ft | 14 kts | 359° |
| 2026-05-07 19:51 | 40.49243 | -3.57987 | 2003 ft | 14 kts | 90° |
| 2026-05-07 19:51 | 40.49243 | -3.57830 | 1997 ft | 20 kts | 90° |
| 2026-05-07 19:51 | 40.49244 | -3.57675 | 1991 ft | 12 kts | 90° |
| 2026-05-07 19:52 | 40.49273 | -3.57550 | 1990 ft | 17 kts | 56° |
| 2026-05-07 19:52 | 40.49370 | -3.57460 | 1986 ft | 16 kts | 19° |
| 2026-05-07 19:52 | 40.49427 | -3.57452 | 1986 ft | 0 kts | 0° |
| 2026-05-07 19:53 | 40.49459 | -3.57452 | 1986 ft | 22 kts | 359° |
| 2026-05-07 19:53 | 40.49920 | -3.57457 | 1990 ft | 109 kts | 359° |
| 2026-05-07 19:53 | 40.50931 | -3.57465 | 2030 ft | 177 kts | 0° |
| 2026-05-07 19:53 | 40.52272 | -3.57472 | 2660 ft | 205 kts | 360° |
| 2026-05-07 19:54 | 40.53727 | -3.57484 | 3496 ft | 209 kts | 1° |
| 2026-05-07 19:54 | 40.55242 | -3.57360 | 3998 ft | 230 kts | 9° |
| 2026-05-07 19:54 | 40.56870 | -3.56893 | 4609 ft | 243 kts | 17° |
| 2026-05-07 19:54 | 40.58482 | -3.56271 | 5574 ft | 242 kts | 17° |
| 2026-05-07 19:55 | 40.60097 | -3.55645 | 6346 ft | 248 kts | 17° |
| 2026-05-07 19:55 | 40.61758 | -3.54998 | 7156 ft | 250 kts | 17° |
| 2026-05-07 19:55 | 40.63446 | -3.54352 | 7955 ft | 254 kts | 13° |
| 2026-05-07 19:55 | 40.65210 | -3.54078 | 8755 ft | 257 kts | 2° |
| 2026-05-07 19:56 | 40.67009 | -3.53940 | 9552 ft | 261 kts | 2° |
| 2026-05-07 19:56 | 40.68832 | -3.53746 | 10242 ft | 269 kts | 10° |
| 2026-05-07 19:56 | 40.70586 | -3.52722 | 10630 ft | 287 kts | 39° |
| 2026-05-07 19:56 | 40.71916 | -3.50673 | 11027 ft | 305 kts | 57° |
| 2026-05-07 19:57 | 40.73144 | -3.48283 | 11399 ft | 324 kts | 56° |
| 2026-05-07 19:57 | 40.74451 | -3.45779 | 11916 ft | 338 kts | 56° |
| 2026-05-07 19:57 | 40.75791 | -3.43202 | 12717 ft | 341 kts | 56° |
| 2026-05-07 19:57 | 40.77143 | -3.40597 | 13528 ft | 347 kts | 56° |
| 2026-05-07 19:58 | 40.78513 | -3.37955 | 14287 ft | 351 kts | 56° |
| 2026-05-07 19:58 | 40.79925 | -3.35307 | 15040 ft | 355 kts | 50° |
| 2026-05-07 19:58 | 40.81819 | -3.33234 | 15811 ft | 356 kts | 26° |
| 2026-05-07 19:58 | 40.84129 | -3.32013 | 16538 ft | 361 kts | 20° |
| 2026-05-07 19:59 | 40.86461 | -3.30726 | 17288 ft | 365 kts | 22° |
| 2026-05-07 19:59 | 40.88810 | -3.29413 | 18016 ft | 369 kts | 21° |
| 2026-05-07 19:59 | 40.91188 | -3.28080 | 18670 ft | 373 kts | 21° |
| 2026-05-07 19:59 | 40.93558 | -3.26750 | 19297 ft | 376 kts | 21° |
| 2026-05-07 20:00 | 40.95974 | -3.25393 | 19917 ft | 379 kts | 21° |
| 2026-05-07 20:00 | 40.98413 | -3.24022 | 20544 ft | 382 kts | 20° |
| 2026-05-07 20:00 | 41.00875 | -3.22637 | 21134 ft | 386 kts | 20° |
| 2026-05-07 20:00 | 41.03354 | -3.21241 | 21750 ft | 389 kts | 20° |
| 2026-05-07 20:01 | 41.05913 | -3.20084 | 22327 ft | 388 kts | 7° |
| 2026-05-07 20:01 | 41.08577 | -3.19498 | 22919 ft | 391 kts | 6° |
| 2026-05-07 20:01 | 41.11275 | -3.18875 | 23443 ft | 395 kts | 7° |
| 2026-05-07 20:01 | 41.13993 | -3.18258 | 23936 ft | 398 kts | 6° |
| 2026-05-07 20:02 | 41.16732 | -3.17639 | 24440 ft | 400 kts | 6° |
| 2026-05-07 20:02 | 41.19479 | -3.17020 | 24966 ft | 401 kts | 5° |
| 2026-05-07 20:02 | 41.22235 | -3.16398 | 25453 ft | 403 kts | 5° |
| 2026-05-07 20:02 | 41.25004 | -3.15772 | 25940 ft | 404 kts | 4° |
| 2026-05-07 20:03 | 41.27786 | -3.15143 | 26414 ft | 406 kts | 4° |
| 2026-05-07 20:03 | 41.30578 | -3.14512 | 26894 ft | 408 kts | 4° |
| 2026-05-07 20:03 | 41.33381 | -3.13877 | 27393 ft | 409 kts | 4° |
| 2026-05-07 20:03 | 41.36192 | -3.13240 | 27885 ft | 410 kts | 3° |
| 2026-05-07 20:04 | 41.39015 | -3.12600 | 28336 ft | 412 kts | 3° |
| 2026-05-07 20:04 | 41.41850 | -3.11956 | 28784 ft | 414 kts | 2° |
| 2026-05-07 20:04 | 41.44696 | -3.11310 | 29217 ft | 416 kts | 2° |
| 2026-05-07 20:04 | 41.47557 | -3.10659 | 29649 ft | 418 kts | 2° |
| 2026-05-07 20:05 | 41.50427 | -3.10008 | 30068 ft | 419 kts | 1° |
| 2026-05-07 20:05 | 41.53311 | -3.09354 | 30439 ft | 421 kts | 2° |
| 2026-05-07 20:05 | 41.56166 | -3.08706 | 30770 ft | 423 kts | 1° |
| 2026-05-07 20:05 | 41.59074 | -3.08046 | 31082 ft | 425 kts | 1° |
| 2026-05-07 20:06 | 41.61998 | -3.07382 | 31386 ft | 427 kts | 1° |
| 2026-05-07 20:06 | 41.64934 | -3.06714 | 31697 ft | 429 kts | 1° |
| 2026-05-07 20:06 | 41.67876 | -3.06045 | 32082 ft | 429 kts | 1° |
| 2026-05-07 20:06 | 41.70813 | -3.05376 | 32510 ft | 428 kts | 1° |
| 2026-05-07 20:07 | 41.73747 | -3.04703 | 32912 ft | 428 kts | 2° |
| 2026-05-07 20:07 | 41.76687 | -3.04027 | 33293 ft | 428 kts | 1° |
| 2026-05-07 20:07 | 41.79625 | -3.03351 | 33692 ft | 427 kts | 1° |
| 2026-05-07 20:07 | 41.82555 | -3.02677 | 33965 ft | 429 kts | 1° |
| 2026-05-07 20:08 | 41.88410 | -3.01326 | 33963 ft | 425 kts | 1° |
| 2026-05-07 20:08 | 41.94202 | -2.99988 | 33962 ft | 425 kts | 1° |
| 2026-05-07 20:09 | 42.00047 | -2.98635 | 33974 ft | 428 kts | 2° |
| 2026-05-07 20:10 | 42.08854 | -2.96593 | 33961 ft | 428 kts | 2° |
| 2026-05-07 20:10 | 42.14727 | -2.95227 | 33942 ft | 428 kts | 2° |
| 2026-05-07 20:11 | 42.20602 | -2.93859 | 33926 ft | 430 kts | 2° |
| 2026-05-07 20:11 | 42.26500 | -2.92482 | 33945 ft | 430 kts | 2° |
| 2026-05-07 20:12 | 42.32391 | -2.91105 | 33953 ft | 430 kts | 2° |
| 2026-05-07 20:12 | 42.38284 | -2.89725 | 33967 ft | 430 kts | 3° |
| 2026-05-07 20:13 | 42.44195 | -2.88282 | 33935 ft | 435 kts | 9° |
| 2026-05-07 20:13 | 42.47023 | -2.86701 | 33939 ft | 446 kts | 23° |
| 2026-05-07 20:13 | 42.49743 | -2.84662 | 33926 ft | 448 kts | 22° |
| 2026-05-07 20:14 | 42.54291 | -2.81300 | 33943 ft | 448 kts | 22° |
| 2026-05-07 20:14 | 42.60635 | -2.76519 | 33942 ft | 449 kts | 23° |
| 2026-05-07 20:15 | 42.65204 | -2.73059 | 33938 ft | 449 kts | 23° |
| 2026-05-07 20:15 | 42.70659 | -2.68919 | 33937 ft | 449 kts | 23° |
| 2026-05-07 20:16 | 42.76105 | -2.64778 | 33948 ft | 449 kts | 23° |
| 2026-05-07 20:16 | 42.81514 | -2.60658 | 33935 ft | 448 kts | 23° |
| 2026-05-07 20:17 | 42.86955 | -2.56503 | 33941 ft | 449 kts | 24° |
| 2026-05-07 20:17 | 42.92401 | -2.52337 | 33933 ft | 448 kts | 24° |
| 2026-05-07 20:18 | 42.97843 | -2.48165 | 33930 ft | 448 kts | 24° |
| 2026-05-07 20:18 | 43.03283 | -2.43986 | 33932 ft | 448 kts | 24° |
| 2026-05-07 20:19 | 43.08705 | -2.39813 | 33929 ft | 448 kts | 24° |
| 2026-05-07 20:19 | 43.14130 | -2.35628 | 33931 ft | 447 kts | 24° |
| 2026-05-07 20:20 | 43.19561 | -2.31430 | 33933 ft | 448 kts | 24° |
| 2026-05-07 20:20 | 43.24959 | -2.27249 | 33917 ft | 448 kts | 25° |
| 2026-05-07 20:21 | 43.30403 | -2.23024 | 33916 ft | 450 kts | 25° |
| 2026-05-07 20:21 | 43.35847 | -2.18790 | 33913 ft | 449 kts | 25° |
| 2026-05-07 20:22 | 43.41286 | -2.14552 | 33925 ft | 449 kts | 25° |
| 2026-05-07 20:22 | 43.46732 | -2.10298 | 33914 ft | 450 kts | 25° |
| 2026-05-07 20:23 | 43.52145 | -2.06062 | 33912 ft | 450 kts | 25° |
| 2026-05-07 20:23 | 43.57623 | -2.01767 | 33908 ft | 450 kts | 25° |
| 2026-05-07 20:24 | 43.63030 | -1.97520 | 33919 ft | 451 kts | 26° |
| 2026-05-07 20:24 | 43.68481 | -1.93222 | 33913 ft | 451 kts | 26° |
| 2026-05-07 20:25 | 43.73934 | -1.88916 | 33913 ft | 453 kts | 26° |
| 2026-05-07 20:25 | 43.79412 | -1.84581 | 33912 ft | 454 kts | 26° |
| 2026-05-07 20:26 | 43.84900 | -1.80229 | 33917 ft | 455 kts | 26° |
| 2026-05-07 20:26 | 43.90395 | -1.75862 | 33917 ft | 455 kts | 26° |
| 2026-05-07 20:27 | 43.95892 | -1.71485 | 33915 ft | 455 kts | 26° |
| 2026-05-07 20:27 | 44.01388 | -1.67098 | 33915 ft | 455 kts | 26° |
| 2026-05-07 20:28 | 44.06888 | -1.62698 | 33916 ft | 457 kts | 27° |
| 2026-05-07 20:28 | 44.12396 | -1.58284 | 33913 ft | 457 kts | 27° |
| 2026-05-07 20:29 | 44.17902 | -1.53860 | 33916 ft | 457 kts | 27° |
| 2026-05-07 20:29 | 44.23416 | -1.49421 | 33922 ft | 458 kts | 28° |
| 2026-05-07 20:30 | 44.28933 | -1.44970 | 33921 ft | 458 kts | 28° |
| 2026-05-07 20:30 | 44.34450 | -1.40509 | 33915 ft | 458 kts | 28° |
| 2026-05-07 20:31 | 44.39929 | -1.36069 | 33915 ft | 458 kts | 28° |
| 2026-05-07 20:31 | 44.45445 | -1.31589 | 33921 ft | 459 kts | 28° |
| 2026-05-07 20:32 | 44.50959 | -1.27101 | 33939 ft | 458 kts | 28° |
| 2026-05-07 20:32 | 44.56472 | -1.22603 | 33942 ft | 458 kts | 28° |
| 2026-05-07 20:33 | 44.61984 | -1.18097 | 33950 ft | 458 kts | 28° |
| 2026-05-07 20:33 | 44.67497 | -1.13580 | 33919 ft | 458 kts | 29° |
| 2026-05-07 20:34 | 44.73015 | -1.09048 | 33932 ft | 460 kts | 29° |
| 2026-05-07 20:34 | 44.78535 | -1.04505 | 33936 ft | 459 kts | 29° |
| 2026-05-07 20:35 | 44.84057 | -0.99950 | 33941 ft | 459 kts | 29° |
| 2026-05-07 20:35 | 44.89572 | -0.95390 | 33947 ft | 459 kts | 29° |
| 2026-05-07 20:36 | 44.95048 | -0.90853 | 33943 ft | 459 kts | 29° |
| 2026-05-07 20:36 | 45.00555 | -0.86279 | 33945 ft | 459 kts | 29° |
| 2026-05-07 20:37 | 45.06064 | -0.81694 | 33947 ft | 460 kts | 30° |
| 2026-05-07 20:37 | 45.11578 | -0.77094 | 33945 ft | 460 kts | 30° |
| 2026-05-07 20:38 | 45.17097 | -0.72479 | 33948 ft | 460 kts | 30° |
| 2026-05-07 20:38 | 45.22620 | -0.67851 | 33952 ft | 462 kts | 30° |
| 2026-05-07 20:39 | 45.28167 | -0.63192 | 33949 ft | 463 kts | 30° |
| 2026-05-07 20:39 | 45.33708 | -0.58527 | 33953 ft | 463 kts | 30° |
| 2026-05-07 20:40 | 45.39244 | -0.53856 | 33964 ft | 463 kts | 30° |
| 2026-05-07 20:40 | 45.44784 | -0.49170 | 33958 ft | 464 kts | 30° |
| 2026-05-07 20:41 | 45.50329 | -0.44471 | 33957 ft | 464 kts | 30° |
| 2026-05-07 20:41 | 45.55878 | -0.39759 | 33972 ft | 464 kts | 30° |
| 2026-05-07 20:42 | 45.61384 | -0.35073 | 33976 ft | 465 kts | 31° |
| 2026-05-07 20:42 | 45.66847 | -0.30128 | 33966 ft | 464 kts | 40° |
| 2026-05-07 20:43 | 45.71748 | -0.24109 | 33952 ft | 465 kts | 41° |
| 2026-05-07 20:43 | 45.76678 | -0.18095 | 33958 ft | 465 kts | 41° |
| 2026-05-07 20:44 | 45.81598 | -0.12076 | 33965 ft | 465 kts | 41° |
| 2026-05-07 20:44 | 45.86517 | -0.06044 | 33971 ft | 465 kts | 41° |
| 2026-05-07 20:45 | 45.91431 | -0.00002 | 33943 ft | 465 kts | 41° |
| 2026-05-07 20:45 | 45.96347 | 0.06056 | 33966 ft | 465 kts | 41° |
| 2026-05-07 20:46 | 46.01232 | 0.12091 | 33969 ft | 467 kts | 41° |
| 2026-05-07 20:46 | 46.06155 | 0.18187 | 33980 ft | 467 kts | 41° |
| 2026-05-07 20:47 | 46.11076 | 0.24297 | 33972 ft | 467 kts | 41° |
| 2026-05-07 20:47 | 46.15990 | 0.30411 | 33970 ft | 467 kts | 41° |
| 2026-05-07 20:48 | 46.20906 | 0.36543 | 33981 ft | 467 kts | 41° |
| 2026-05-07 20:48 | 46.25821 | 0.42690 | 33966 ft | 466 kts | 41° |
| 2026-05-07 20:49 | 46.30713 | 0.48823 | 33969 ft | 465 kts | 41° |
| 2026-05-07 20:49 | 46.35573 | 0.54931 | 33983 ft | 465 kts | 41° |
| 2026-05-07 20:50 | 46.40467 | 0.61096 | 33980 ft | 466 kts | 41° |
| 2026-05-07 20:50 | 46.45364 | 0.67280 | 33985 ft | 466 kts | 41° |
| 2026-05-07 20:51 | 46.50255 | 0.73468 | 33992 ft | 466 kts | 41° |
| 2026-05-07 20:51 | 46.55704 | 0.78370 | 33977 ft | 462 kts | 15° |
| 2026-05-07 20:52 | 46.61986 | 0.80568 | 33971 ft | 465 kts | 11° |
| 2026-05-07 20:52 | 46.68251 | 0.82603 | 33990 ft | 464 kts | 10° |
| 2026-05-07 20:53 | 46.74564 | 0.84605 | 33998 ft | 464 kts | 10° |
| 2026-05-07 20:53 | 46.80849 | 0.86599 | 33993 ft | 453 kts | 10° |
| 2026-05-07 20:54 | 46.86919 | 0.88528 | 33992 ft | 443 kts | 10° |
| 2026-05-07 20:54 | 46.92949 | 0.90449 | 32991 ft | 447 kts | 10° |
| 2026-05-07 20:54 | 46.96010 | 0.91426 | 32008 ft | 452 kts | 10° |
| 2026-05-07 20:55 | 46.99091 | 0.92410 | 31073 ft | 453 kts | 10° |
| 2026-05-07 20:55 | 47.02173 | 0.93391 | 30225 ft | 453 kts | 10° |
| 2026-05-07 20:55 | 47.05245 | 0.94369 | 29678 ft | 449 kts | 10° |
| 2026-05-07 20:55 | 47.08274 | 0.95335 | 29282 ft | 442 kts | 10° |
| 2026-05-07 20:56 | 47.11264 | 0.96288 | 28805 ft | 436 kts | 10° |
| 2026-05-07 20:56 | 47.14215 | 0.97231 | 28336 ft | 431 kts | 10° |
| 2026-05-07 20:56 | 47.17134 | 0.98164 | 27879 ft | 427 kts | 10° |
| 2026-05-07 20:56 | 47.20022 | 0.99089 | 27434 ft | 422 kts | 10° |
| 2026-05-07 20:57 | 47.22883 | 1.00005 | 26983 ft | 419 kts | 11° |
| 2026-05-07 20:57 | 47.25716 | 1.00914 | 26541 ft | 415 kts | 11° |
| 2026-05-07 20:57 | 47.28484 | 1.01803 | 26115 ft | 411 kts | 11° |
| 2026-05-07 20:57 | 47.31267 | 1.02698 | 25692 ft | 408 kts | 11° |
| 2026-05-07 20:58 | 47.34031 | 1.03587 | 25275 ft | 405 kts | 11° |
| 2026-05-07 20:58 | 47.36769 | 1.04469 | 24858 ft | 402 kts | 11° |
| 2026-05-07 20:58 | 47.39493 | 1.05348 | 24457 ft | 399 kts | 11° |
| 2026-05-07 20:58 | 47.42192 | 1.06221 | 24054 ft | 397 kts | 12° |
| 2026-05-07 20:59 | 47.44828 | 1.07454 | 23587 ft | 397 kts | 19° |
| 2026-05-07 20:59 | 47.47432 | 1.08780 | 23100 ft | 395 kts | 18° |
| 2026-05-07 20:59 | 47.50029 | 1.10072 | 22632 ft | 393 kts | 18° |
| 2026-05-07 20:59 | 47.52612 | 1.11394 | 22119 ft | 392 kts | 18° |
| 2026-05-07 21:00 | 47.55178 | 1.12703 | 21712 ft | 389 kts | 18° |
| 2026-05-07 21:00 | 47.57731 | 1.14002 | 21310 ft | 386 kts | 18° |
| 2026-05-07 21:00 | 47.60264 | 1.15291 | 20878 ft | 384 kts | 18° |
| 2026-05-07 21:00 | 47.62785 | 1.16572 | 20439 ft | 382 kts | 18° |
| 2026-05-07 21:01 | 47.65298 | 1.17852 | 20011 ft | 381 kts | 19° |
| 2026-05-07 21:01 | 47.66960 | 1.18698 | 19724 ft | 380 kts | 19° |
| 2026-05-07 21:01 | 47.69453 | 1.19969 | 19293 ft | 379 kts | 19° |
| 2026-05-07 21:01 | 47.71941 | 1.21239 | 18869 ft | 378 kts | 19° |
| 2026-05-07 21:02 | 47.74427 | 1.22509 | 18441 ft | 377 kts | 19° |
| 2026-05-07 21:02 | 47.77703 | 1.24185 | 17822 ft | 375 kts | 19° |
| 2026-05-07 21:02 | 47.79373 | 1.25039 | 17514 ft | 374 kts | 19° |
| 2026-05-07 21:02 | 47.81822 | 1.26294 | 17096 ft | 371 kts | 19° |
| 2026-05-07 21:03 | 47.84254 | 1.27541 | 16664 ft | 369 kts | 18° |
| 2026-05-07 21:03 | 47.86670 | 1.28782 | 16263 ft | 366 kts | 18° |
| 2026-05-07 21:03 | 47.89045 | 1.30003 | 15857 ft | 364 kts | 18° |
| 2026-05-07 21:03 | 47.91429 | 1.31229 | 15448 ft | 362 kts | 18° |
| 2026-05-07 21:04 | 47.93787 | 1.32444 | 15042 ft | 354 kts | 18° |
| 2026-05-07 21:04 | 47.96089 | 1.33630 | 14647 ft | 346 kts | 18° |
| 2026-05-07 21:04 | 47.98337 | 1.34790 | 14260 ft | 338 kts | 18° |
| 2026-05-07 21:04 | 48.00536 | 1.35925 | 13883 ft | 330 kts | 18° |
| 2026-05-07 21:05 | 48.02682 | 1.37034 | 13473 ft | 323 kts | 18° |
| 2026-05-07 21:05 | 48.04788 | 1.38123 | 13099 ft | 318 kts | 18° |
| 2026-05-07 21:05 | 48.06769 | 1.39507 | 12834 ft | 313 kts | 33° |
| 2026-05-07 21:05 | 48.08554 | 1.41340 | 12575 ft | 310 kts | 34° |
| 2026-05-07 21:06 | 48.10344 | 1.43159 | 12360 ft | 311 kts | 33° |
| 2026-05-07 21:06 | 48.12135 | 1.44973 | 12118 ft | 310 kts | 33° |
| 2026-05-07 21:06 | 48.13922 | 1.46780 | 11833 ft | 310 kts | 33° |
| 2026-05-07 21:06 | 48.15710 | 1.48588 | 11491 ft | 310 kts | 33° |
| 2026-05-07 21:07 | 48.17499 | 1.50398 | 11194 ft | 310 kts | 33° |
| 2026-05-07 21:07 | 48.19279 | 1.52199 | 10878 ft | 308 kts | 33° |
| 2026-05-07 21:07 | 48.21052 | 1.53996 | 10564 ft | 306 kts | 33° |
| 2026-05-07 21:07 | 48.22807 | 1.55775 | 10269 ft | 303 kts | 33° |
| 2026-05-07 21:08 | 48.24546 | 1.57541 | 10030 ft | 298 kts | 33° |
| 2026-05-07 21:08 | 48.26234 | 1.59257 | 10021 ft | 288 kts | 33° |
| 2026-05-07 21:08 | 48.27893 | 1.60944 | 10033 ft | 291 kts | 33° |
| 2026-05-07 21:08 | 48.29580 | 1.62662 | 10026 ft | 291 kts | 33° |
| 2026-05-07 21:09 | 48.31252 | 1.64365 | 10033 ft | 292 kts | 33° |
| 2026-05-07 21:09 | 48.32911 | 1.66056 | 10029 ft | 290 kts | 33° |
| 2026-05-07 21:09 | 48.34570 | 1.67749 | 10030 ft | 285 kts | 33° |
| 2026-05-07 21:09 | 48.36214 | 1.69428 | 10030 ft | 287 kts | 33° |
| 2026-05-07 21:10 | 48.37857 | 1.71105 | 9920 ft | 284 kts | 33° |
| 2026-05-07 21:10 | 48.39497 | 1.72783 | 9601 ft | 286 kts | 33° |
| 2026-05-07 21:10 | 48.41145 | 1.74468 | 9268 ft | 287 kts | 33° |
| 2026-05-07 21:10 | 48.42798 | 1.76160 | 8963 ft | 286 kts | 33° |
| 2026-05-07 21:11 | 48.44437 | 1.77839 | 8645 ft | 284 kts | 33° |
| 2026-05-07 21:11 | 48.46067 | 1.79510 | 8325 ft | 283 kts | 33° |
| 2026-05-07 21:11 | 48.49298 | 1.82826 | 7702 ft | 279 kts | 33° |
| 2026-05-07 21:12 | 48.50900 | 1.84473 | 7387 ft | 278 kts | 33° |
| 2026-05-07 21:12 | 48.52492 | 1.86111 | 7088 ft | 276 kts | 33° |
| 2026-05-07 21:12 | 48.54073 | 1.87738 | 6798 ft | 274 kts | 33° |
| 2026-05-07 21:12 | 48.55649 | 1.89361 | 6498 ft | 273 kts | 33° |
| 2026-05-07 21:13 | 48.57082 | 1.91221 | 6175 ft | 272 kts | 47° |
| 2026-05-07 21:13 | 48.58216 | 1.93490 | 5881 ft | 269 kts | 56° |
| 2026-05-07 21:13 | 48.59189 | 1.95856 | 5558 ft | 260 kts | 58° |
| 2026-05-07 21:13 | 48.60085 | 1.98168 | 5251 ft | 250 kts | 60° |
| 2026-05-07 21:14 | 48.60907 | 2.00413 | 4945 ft | 238 kts | 61° |
| 2026-05-07 21:14 | 48.61678 | 2.02565 | 4643 ft | 228 kts | 62° |
| 2026-05-07 21:14 | 48.62413 | 2.04626 | 4349 ft | 217 kts | 62° |
| 2026-05-07 21:14 | 48.63107 | 2.06575 | 4077 ft | 204 kts | 62° |
| 2026-05-07 21:15 | 48.63752 | 2.08390 | 3818 ft | 193 kts | 62° |
| 2026-05-07 21:15 | 48.64377 | 2.10152 | 3565 ft | 188 kts | 63° |
| 2026-05-07 21:15 | 48.64990 | 2.11884 | 3323 ft | 186 kts | 63° |
| 2026-05-07 21:15 | 48.65599 | 2.13602 | 3070 ft | 183 kts | 63° |
| 2026-05-07 21:16 | 48.66178 | 2.15236 | 2831 ft | 171 kts | 63° |
| 2026-05-07 21:16 | 48.66728 | 2.16788 | 2593 ft | 162 kts | 63° |
| 2026-05-07 21:16 | 48.67240 | 2.18234 | 2384 ft | 151 kts | 63° |
| 2026-05-07 21:16 | 48.67734 | 2.19629 | 2223 ft | 150 kts | 63° |
| 2026-05-07 21:17 | 48.68214 | 2.20986 | 2027 ft | 142 kts | 63° |
| 2026-05-07 21:17 | 48.68672 | 2.22283 | 1838 ft | 139 kts | 64° |
| 2026-05-07 21:17 | 48.69129 | 2.23572 | 1623 ft | 139 kts | 63° |
| 2026-05-07 21:17 | 48.69583 | 2.24867 | 1414 ft | 139 kts | 64° |
| 2026-05-07 21:18 | 48.70038 | 2.26158 | 1183 ft | 139 kts | 62° |
| 2026-05-07 21:18 | 48.70495 | 2.27430 | 1051 ft | 139 kts | 63° |
| 2026-05-07 21:18 | 48.70951 | 2.28725 | 868 ft | 140 kts | 63° |
| 2026-05-07 21:18 | 48.71418 | 2.30030 | 658 ft | 141 kts | 63° |
| 2026-05-07 21:19 | 48.71873 | 2.31328 | 463 ft | 140 kts | 63° |
| 2026-05-07 21:19 | 48.72327 | 2.32614 | 308 ft | 132 kts | 63° |
| 2026-05-07 21:19 | 48.72705 | 2.33683 | 307 ft | 90 kts | 62° |
| 2026-05-07 21:19 | 48.72910 | 2.34265 | 301 ft | 42 kts | 62° |
| 2026-05-07 21:20 | 48.72991 | 2.34560 | 302 ft | 20 kts | 77° |
| 2026-05-07 21:20 | 48.73012 | 2.34779 | 300 ft | 22 kts | 81° |
| 2026-05-07 21:20 | 48.73035 | 2.35010 | 301 ft | 19 kts | 82° |
| 2026-05-07 21:20 | 48.73032 | 2.35179 | 304 ft | 15 kts | 108° |
| 2026-05-07 21:21 | 48.73020 | 2.35346 | 302 ft | 18 kts | 78° |
| 2026-05-07 21:21 | 48.73079 | 2.35505 | 306 ft | 17 kts | 57° |
| 2026-05-07 21:21 | 48.73091 | 2.35587 | 305 ft | 7 kts | 124° |
| 2026-05-07 21:21 | 48.73067 | 2.35661 | 304 ft | 9 kts | 82° |
| 2026-05-07 21:22 | 48.73100 | 2.35755 | 302 ft | 9 kts | 56° |
| 2026-05-07 21:22 | 48.73113 | 2.35830 | 301 ft | 7 kts | 118° |
| 2026-05-07 21:22 | 48.73084 | 2.35879 | 301 ft | 5 kts | 133° |
| 2026-05-07 21:22 | 48.73076 | 2.35892 | 302 ft | 0 kts | 134° |